AIRPORT INFORMATION 18-10-2021 06:28 KNMI / JUMPRUN.NL

SAEHAK A12-CPP NLD 48 m.
180555 ... METAR EHAK 180555Z AUTO 21014KT 9999 SCT010/// BKN012/// BKN022///
14/14 Q1016=

SAEHAM AMSTERDAM/SCHIPHOL NLD -3 m.
180625 ... METAR EHAM 180625Z 16007KT CAVOK 08/06 Q1021 NOSIG=
SAEHBK MAASTRICHT/MAASTRICHT- AACHEN
NLD 114 m.
180625 ... METAR EHBK 180625Z AUTO 16004KT 9999 NSC 07/05 Q1022 NOSIG=
SAEHDL ARNHEM/DEELEN NLD 48 m.
180625 ... METAR EHDL 180625Z AUTO 13003KT 090V170 6000 BR BKN085 OVC260 07/06
Q1022 WHT=

SAEHDV D15-FA-1 NLD 42 m.
180555 ... METAR EHDV 180555Z AUTO 22018KT 190V270 9999 FEW037/// SCT042///
14/12 Q1017=

SAEHEH EINDHOVEN/EINDHOVEN NLD 22 m.
180625 ... METAR EHEH 180625Z AUTO 14005KT 120V210 8000 BR OVC260 06/06 Q1022
BLU NOSIG=

SAEHFD F3-FB-1 NLD 50 m.
180555 ... METAR EHFD 180555Z AUTO 21016KT 9999 -RA OVC020/// 15/13 Q1017=
SAEHFS VLISSINGEN AWS NLD 8 m.
180555 ... METAR EHFS 180555Z AUTO 16012KT 9999 NSC 10/07 Q1020=
SAEHFZ F16-A NLD 43 m.
180555 ... METAR EHFZ 180555Z NIL=
SAEHGG GRONINGEN/EELDE NLD 5 m.
180625 ... METAR EHGG 180625Z AUTO 19006KT 9999 NSC 09/07 Q1021 NOSIG=
SAEHGR GILZE-RIJEN/GILZE-RIJEN NLD 14 m.
180625 ... METAR EHGR 180625Z AUTO 17006KT 8000 BR OVC250 07/06 Q1021 BLU=
SAEHHW BUITENGAATS/BG-OHVS2   42 m.
180555 ... METAR EHHW 180555Z AUTO 21015KT 190V250 9999 FEW021/// SCT025///
OVC043/// 15/12 Q1019=

SAEHJA J6-A NLD 45 m.
180555 ... METAR EHJA 180555Z AUTO 21014KT 9999 NSC 14/12 Q1017=
SAEHJR K13-A NLD 37 m.
180555 ... METAR EHJR 180555Z AUTO 21017KT //// // ///////// 15/12 Q//// RE//
W16/H12=

SAEHKD DE KOOY/DE KOOY NLD 1 m.
180625 ... METAR EHKD 180625Z AUTO 18007KT 9999 OVC081 09/07 Q1020
BLU NOSIG=
SAEHKV K14-FA-1C NLD 41 m.
180555 ... METAR EHKV 180555Z AUTO 22018KT 9999 FEW016 15/12 Q1018=
SAEHLE LELYSTAD/LELYSTAD NLD -3 m.
180625 ... METAR EHLE 180625Z AUTO 17007KT 9999 NSC 07/06 Q1021 NOSIG=
SAEHLW LEEUWARDEN/LEEUWARDEN NLD 1 m.
180625 ... METAR EHLW 180625Z AUTO 18007KT 150V210 9999 OVC085 11/09 Q1020 BLU=
SAEHMA AWG-1 NLD 40 m.
180555 ... METAR EHMA 180555Z AUTO 21017KT 170V240 9999 NSC 11/09 Q1020=
SAEHMG L9-FF-1 NLD 44 m.
180555 ... METAR EHMG 180555Z AUTO 21022KT 9999 FEW017 15/11 Q1020=
SAEHPG P11-B NLD 41 m.
180555 ... METAR EHPG 180555Z AUTO VRB13KT 9999 NSC 14/10 Q1019=
SAEHQE HOORN-A NLD 50 m.
180555 ... METAR EHQE 180555Z AUTO 21013KT 9999 NSC 15/10 Q1019=
SAEHRD ROTTERDAM/THE HAGUE AIRPORT NLD -5 m.
180625 ... METAR EHRD 180625Z AUTO 16007KT 9999 NSC 09/07 Q1021 NOSIG=
SAEHSA EURO PLATFORM NLD 19 m.
180555 ... METAR EHSA 180555Z AUTO 17017KT 9999 ///////// 13/09 Q1019 W16/H9=
SAEHSC LICHTEILAND GOEREE NLD 22 m.
180555 ... METAR EHSC 180555Z AUTO 19016KT 9999 ///////// 12/08 Q1020 W16/H7=
SAEHSG BSA NLD 43 m.
180555 ... METAR EHSG 180555Z AUTO 19012KT //// // NSC 12/09 Q1019 RE//=
SAEHVK VOLKEL/VOLKEL NLD 21 m.
180625 ... METAR EHVK 180625Z AUTO 13003KT 8000 BR OVC250 07/06 Q1022
BLU NOSIG=
SAEHVL VLIELAND NLD 10 m.
180625 ... METAR EHVL 180625Z AUTO 19013KT 9999 BKN085 OVC240 11/09 Q1020 BLU=
SAEHWO WOENSDRECHT/WOENSDRECHT NLD 19 m.
180625 ... METAR EHWO 180625Z AUTO 14003KT 090V230 9999 OVC240 07/06 Q1021 BLU=
ENDOUTPUT